Time;durP1;ratioP1;P1;durP2;ratioP2;P2;SDS_P1;SDS_P2;PMS_P1;PMS_P2;Temp;Humidity;BMP_temperature;BMP_pressure;BME280_temperature;BME280_humidity;BME280_pressure;Samples;Min_cycle;Max_cycle;Signal;HPM_P1;HPM_P2
2023/01/06 00:01:52;;;;;;;;;;;18.40;54.80;;;;;;5070838;28;19998;-52
2023/01/06 00:04:18;;;;;;;;;;;18.40;54.60;;;;;;5054468;28;19935;-53
2023/01/06 00:06:43;;;;;;;;;;;18.40;54.90;;;;;;5072221;28;19931;-53
2023/01/06 00:09:09;;;;;;;;;;;18.40;54.80;;;;;;5071616;28;20526;-52
2023/01/06 00:11:34;;;;;;;;;;;18.30;54.60;;;;;;5071876;28;20295;-53
2023/01/06 00:14:00;;;;;;;;;;;18.30;54.70;;;;;;5103414;28;20323;-53
2023/01/06 00:16:25;;;;;;;;;;;18.30;54.80;;;;;;5072075;28;19919;-52
2023/01/06 00:18:57;;;;;;;;;;;18.30;54.50;;;;;;5070748;28;19957;-53
2023/01/06 00:21:23;;;;;;;;;;;18.30;54.50;;;;;;5070730;28;19923;-52
2023/01/06 00:23:48;;;;;;;;;;;18.30;54.60;;;;;;5078204;28;19912;-53
2023/01/06 00:26:14;;;;;;;;;;;18.20;54.60;;;;;;5071585;28;19913;-52
2023/01/06 00:28:39;;;;;;;;;;;18.20;54.60;;;;;;5070955;28;19923;-53
2023/01/06 00:31:06;;;;;;;;;;;18.20;54.80;;;;;;5072147;28;19920;-53
2023/01/06 00:33:31;;;;;;;;;;;18.20;54.70;;;;;;5072336;28;20416;-52
2023/01/06 00:35:57;;;;;;;;;;;18.20;54.80;;;;;;5071928;28;19956;-53
2023/01/06 00:38:22;;;;;;;;;;;18.20;54.80;;;;;;5074797;28;19970;-53
2023/01/06 00:40:48;;;;;;;;;;;18.20;54.70;;;;;;5075251;28;19924;-52
2023/01/06 00:43:13;;;;;;;;;;;18.10;54.80;;;;;;5080577;28;19965;-52
2023/01/06 00:45:39;;;;;;;;;;;18.10;54.70;;;;;;5096284;28;19916;-52
2023/01/06 00:48:04;;;;;;;;;;;18.10;54.80;;;;;;5074394;28;19921;-52
2023/01/06 00:50:30;;;;;;;;;;;18.10;54.80;;;;;;5072456;28;20019;-53
2023/01/06 00:52:55;;;;;;;;;;;18.10;54.80;;;;;;5075653;28;19979;-53
2023/01/06 00:55:21;;;;;;;;;;;18.00;54.80;;;;;;5074929;28;19908;-52
2023/01/06 00:57:48;;;;;;;;;;;18.00;54.80;;;;;;5075418;28;20288;-53
2023/01/06 01:00:14;;;;;;;;;;;18.00;54.80;;;;;;5074773;28;20315;-52
2023/01/06 01:02:39;;;;;;;;;;;18.00;54.80;;;;;;5075389;28;19981;-53
2023/01/06 01:05:05;;;;;;;;;;;18.00;54.90;;;;;;5074198;28;19913;-53
2023/01/06 01:07:30;;;;;;;;;;;18.00;54.80;;;;;;5075184;28;19916;-53
2023/01/06 01:09:56;;;;;;;;;;;18.00;54.90;;;;;;5074332;28;20360;-52
2023/01/06 01:12:21;;;;;;;;;;;18.00;54.90;;;;;;5058794;28;19915;-52
2023/01/06 01:14:47;;;;;;;;;;;17.90;54.80;;;;;;5074579;28;19991;-52
2023/01/06 01:17:14;;;;;;;;;;;17.90;54.90;;;;;;5075465;28;19909;-53
2023/01/06 01:19:39;;;;;;;;;;;17.90;54.90;;;;;;5073745;28;19913;-52
2023/01/06 01:22:05;;;;;;;;;;;17.90;55.00;;;;;;5073996;28;19930;-52
2023/01/06 01:24:31;;;;;;;;;;;17.90;55.00;;;;;;5073633;28;19912;-53
2023/01/06 01:26:56;;;;;;;;;;;17.90;55.00;;;;;;5074565;28;19966;-52
2023/01/06 01:29:22;;;;;;;;;;;17.80;54.90;;;;;;5081415;28;20252;-52
2023/01/06 01:31:47;;;;;;;;;;;17.80;54.90;;;;;;5074356;28;19948;-52
2023/01/06 01:34:13;;;;;;;;;;;17.80;54.90;;;;;;5089124;28;20291;-52
2023/01/06 01:36:39;;;;;;;;;;;17.80;55.00;;;;;;5087287;28;19919;-53
2023/01/06 01:39:04;;;;;;;;;;;17.70;55.00;;;;;;5074283;28;19920;-53
2023/01/06 01:41:30;;;;;;;;;;;17.70;54.90;;;;;;5073759;28;20022;-53
2023/01/06 01:43:56;;;;;;;;;;;17.70;55.10;;;;;;5082902;28;19912;-53
2023/01/06 01:46:25;;;;;;;;;;;17.70;55.00;;;;;;5077237;28;20337;-53
2023/01/06 01:48:50;;;;;;;;;;;17.70;55.10;;;;;;5058936;28;19913;-52
2023/01/06 01:51:16;;;;;;;;;;;17.70;55.30;;;;;;5082347;28;20328;-52
2023/01/06 01:53:46;;;;;;;;;;;17.70;55.10;;;;;;5072818;28;20011;-53
2023/01/06 01:56:12;;;;;;;;;;;17.70;55.10;;;;;;5074038;28;20284;-53
2023/01/06 01:58:47;;;;;;;;;;;17.70;55.10;;;;;;5072916;28;19912;-53
2023/01/06 02:01:13;;;;;;;;;;;17.60;55.00;;;;;;5074294;28;20276;-52
2023/01/06 02:03:39;;;;;;;;;;;17.60;55.10;;;;;;5074028;28;20864;-52
2023/01/06 02:06:06;;;;;;;;;;;17.60;55.10;;;;;;5071825;28;20662;-53
2023/01/06 02:08:39;;;;;;;;;;;17.60;55.10;;;;;;5072895;28;20372;-53
2023/01/06 02:11:04;;;;;;;;;;;17.60;55.00;;;;;;5065355;28;19928;-52
2023/01/06 02:13:30;;;;;;;;;;;17.60;55.00;;;;;;5081607;28;19913;-52
2023/01/06 02:16:16;;;;;;;;;;;17.70;55.00;;;;;;5065202;28;19913;-52
2023/01/06 02:18:48;;;;;;;;;;;17.80;54.80;;;;;;5065910;28;19916;-52
2023/01/06 02:21:24;;;;;;;;;;;18.00;54.60;;;;;;5061377;28;19917;-53
2023/01/06 02:23:55;;;;;;;;;;;18.30;54.20;;;;;;5073835;28;19908;-52
2023/01/06 02:26:27;;;;;;;;;;;18.50;53.70;;;;;;5072744;28;19913;-53
2023/01/06 02:28:55;;;;;;;;;;;18.70;53.20;;;;;;5106015;28;20439;-52
2023/01/06 02:31:23;;;;;;;;;;;19.00;52.80;;;;;;5073781;28;19978;-52
2023/01/06 02:33:50;;;;;;;;;;;19.10;52.40;;;;;;5073587;28;19962;-53
2023/01/06 02:36:17;;;;;;;;;;;19.30;52.20;;;;;;5070916;28;19927;-52
2023/01/06 02:38:48;;;;;;;;;;;19.30;52.00;;;;;;5071948;28;20265;-52
2023/01/06 02:41:20;;;;;;;;;;;19.30;51.90;;;;;;5073097;28;20000;-52
2023/01/06 02:44:06;;;;;;;;;;;19.30;52.10;;;;;;5104330;28;19916;-52
2023/01/06 02:46:41;;;;;;;;;;;19.20;52.10;;;;;;5066308;28;19916;-53
2023/01/06 02:49:09;;;;;;;;;;;19.20;52.20;;;;;;5084466;28;20288;-53
2023/01/06 02:51:39;;;;;;;;;;;19.10;52.30;;;;;;5072889;28;19971;-52
2023/01/06 02:54:22;;;;;;;;;;;19.10;52.40;;;;;;5072258;28;19917;-53
2023/01/06 02:56:49;;;;;;;;;;;19.00;52.50;;;;;;5079264;28;19912;-53
2023/01/06 02:59:19;;;;;;;;;;;18.90;52.60;;;;;;5072014;28;19919;-52
2023/01/06 03:01:45;;;;;;;;;;;18.80;52.60;;;;;;5121135;27;19916;-52
2023/01/06 03:04:19;;;;;;;;;;;18.70;52.70;;;;;;5087098;28;19913;-53
2023/01/06 03:06:45;;;;;;;;;;;18.70;53.00;;;;;;5083867;28;19959;-53
2023/01/06 03:09:11;;;;;;;;;;;18.50;53.00;;;;;;5089968;28;20336;-53
2023/01/06 03:11:37;;;;;;;;;;;18.50;53.20;;;;;;5074550;28;19920;-53
2023/01/06 03:14:05;;;;;;;;;;;18.40;53.40;;;;;;5071045;28;19939;-52
2023/01/06 03:16:30;;;;;;;;;;;18.40;53.50;;;;;;5072277;28;19909;-52
2023/01/06 03:18:56;;;;;;;;;;;18.30;53.60;;;;;;5070626;28;20222;-52
2023/01/06 03:21:22;;;;;;;;;;;18.30;53.90;;;;;;5052846;28;20389;-52
2023/01/06 03:23:47;;;;;;;;;;;18.30;53.80;;;;;;5094391;28;20378;-52
2023/01/06 03:26:13;;;;;;;;;;;18.20;53.60;;;;;;5072082;28;19908;-53
2023/01/06 03:28:38;;;;;;;;;;;18.20;53.60;;;;;;5104578;28;19917;-52
2023/01/06 03:31:11;;;;;;;;;;;18.20;53.60;;;;;;5072532;28;19916;-53
2023/01/06 03:33:38;;;;;;;;;;;18.20;53.80;;;;;;5105134;28;19940;-52
2023/01/06 03:36:06;;;;;;;;;;;18.20;53.80;;;;;;5071741;28;20468;-52
2023/01/06 03:38:49;;;;;;;;;;;18.20;53.70;;;;;;5072204;28;19920;-52
2023/01/06 03:41:14;;;;;;;;;;;18.10;53.70;;;;;;5072157;28;20391;-52
2023/01/06 03:43:45;;;;;;;;;;;18.20;53.80;;;;;;5071996;28;19908;-53
2023/01/06 03:46:21;;;;;;;;;;;18.20;53.90;;;;;;5072391;28;20007;-52
2023/01/06 03:48:49;;;;;;;;;;;18.20;53.80;;;;;;5103713;28;19958;-52
2023/01/06 03:51:22;;;;;;;;;;;18.10;53.70;;;;;;5070992;28;19912;-53
2023/01/06 03:53:49;;;;;;;;;;;18.20;53.80;;;;;;5071418;28;20387;-52
2023/01/06 03:56:16;;;;;;;;;;;18.20;53.90;;;;;;5071886;28;20348;-52
2023/01/06 03:58:41;;;;;;;;;;;18.10;54.00;;;;;;5071194;28;19917;-52
2023/01/06 04:01:07;;;;;;;;;;;18.10;54.00;;;;;;5104670;28;20291;-52
2023/01/06 04:03:32;;;;;;;;;;;18.10;54.20;;;;;;5072448;28;19912;-51
2023/01/06 04:05:58;;;;;;;;;;;18.10;54.10;;;;;;5103707;28;20386;-52
2023/01/06 04:08:23;;;;;;;;;;;18.10;54.00;;;;;;5072213;28;19912;-52
2023/01/06 04:10:48;;;;;;;;;;;18.10;54.00;;;;;;5071986;28;19912;-53
2023/01/06 04:13:14;;;;;;;;;;;18.00;54.00;;;;;;5075154;28;19920;-52
2023/01/06 04:15:39;;;;;;;;;;;18.00;54.00;;;;;;5067833;28;20347;-52
2023/01/06 04:18:05;;;;;;;;;;;18.00;54.10;;;;;;5075619;28;20391;-51
2023/01/06 04:20:30;;;;;;;;;;;18.00;54.10;;;;;;5070396;28;19916;-51
2023/01/06 04:22:56;;;;;;;;;;;18.10;54.10;;;;;;5075961;28;19931;-51
2023/01/06 04:25:21;;;;;;;;;;;18.10;53.90;;;;;;5073980;28;19919;-54
2023/01/06 04:27:47;;;;;;;;;;;18.10;53.90;;;;;;5065676;28;19916;-53
2023/01/06 04:30:12;;;;;;;;;;;18.10;53.80;;;;;;5075527;28;20022;-53
2023/01/06 04:32:38;;;;;;;;;;;18.10;53.80;;;;;;5075475;28;19916;-53
2023/01/06 04:35:03;;;;;;;;;;;18.10;53.60;;;;;;5084004;28;19912;-53
2023/01/06 04:37:29;;;;;;;;;;;18.20;53.70;;;;;;5076751;28;19948;-51
2023/01/06 04:39:54;;;;;;;;;;;18.20;53.60;;;;;;5074961;28;20003;-52
2023/01/06 04:42:20;;;;;;;;;;;18.20;53.80;;;;;;5075745;28;20017;-52
2023/01/06 04:44:45;;;;;;;;;;;18.20;53.80;;;;;;5074494;28;20358;-52
2023/01/06 04:47:10;;;;;;;;;;;18.10;53.70;;;;;;5075116;28;19912;-52
2023/01/06 04:49:36;;;;;;;;;;;18.10;53.80;;;;;;5074958;28;20011;-52
2023/01/06 04:52:01;;;;;;;;;;;18.10;53.70;;;;;;5075173;28;19956;-52
2023/01/06 04:54:27;;;;;;;;;;;18.10;53.90;;;;;;5074048;28;19935;-52
2023/01/06 04:56:52;;;;;;;;;;;18.10;53.90;;;;;;5075252;28;19916;-52
2023/01/06 04:59:18;;;;;;;;;;;18.10;53.90;;;;;;5074959;28;19920;-52
2023/01/06 05:01:43;;;;;;;;;;;18.00;53.80;;;;;;5074977;28;19979;-52
2023/01/06 05:04:09;;;;;;;;;;;18.00;54.00;;;;;;5074433;28;20015;-52
2023/01/06 05:06:34;;;;;;;;;;;18.00;53.90;;;;;;5074617;28;19912;-52
2023/01/06 05:08:59;;;;;;;;;;;18.00;53.90;;;;;;5074858;28;19913;-52
2023/01/06 05:11:25;;;;;;;;;;;18.00;53.90;;;;;;5067776;28;20479;-52
2023/01/06 05:13:50;;;;;;;;;;;18.00;54.00;;;;;;5073064;28;20356;-52
2023/01/06 05:16:17;;;;;;;;;;;18.00;53.80;;;;;;5074015;28;19917;-52
2023/01/06 05:18:42;;;;;;;;;;;18.00;54.00;;;;;;5107246;28;19923;-51
2023/01/06 05:21:08;;;;;;;;;;;18.00;54.00;;;;;;5070757;28;19916;-52
2023/01/06 05:23:33;;;;;;;;;;;18.00;54.00;;;;;;5073036;28;19919;-51
2023/01/06 05:25:59;;;;;;;;;;;18.00;54.00;;;;;;5054458;28;20382;-51
2023/01/06 05:28:24;;;;;;;;;;;18.00;54.00;;;;;;5060127;28;19921;-52
2023/01/06 05:30:50;;;;;;;;;;;18.00;54.00;;;;;;5056826;28;19924;-52
2023/01/06 05:33:16;;;;;;;;;;;18.00;54.00;;;;;;5058435;28;19924;-52
2023/01/06 05:35:41;;;;;;;;;;;18.00;54.10;;;;;;5063868;28;20372;-53
2023/01/06 05:38:06;;;;;;;;;;;18.00;54.00;;;;;;5056667;28;19916;-52
2023/01/06 05:40:33;;;;;;;;;;;18.00;54.00;;;;;;5060080;28;19923;-52
2023/01/06 05:42:58;;;;;;;;;;;18.00;54.10;;;;;;5069601;28;19977;-51
2023/01/06 05:45:24;;;;;;;;;;;18.00;54.00;;;;;;5064138;28;19913;-53
2023/01/06 05:47:49;;;;;;;;;;;17.90;54.00;;;;;;5063552;28;19913;-54
2023/01/06 05:50:15;;;;;;;;;;;18.00;54.10;;;;;;5063536;28;20003;-54
2023/01/06 05:52:40;;;;;;;;;;;18.00;54.00;;;;;;5071484;28;19915;-51
2023/01/06 05:55:06;;;;;;;;;;;18.00;53.70;;;;;;5091032;28;20435;-51
2023/01/06 05:57:32;;;;;;;;;;;18.00;53.80;;;;;;5073032;28;19947;-51
2023/01/06 05:59:57;;;;;;;;;;;18.00;53.90;;;;;;5073308;28;20422;-52
2023/01/06 06:02:23;;;;;;;;;;;18.00;54.60;;;;;;5074127;28;19916;-52
2023/01/06 06:04:48;;;;;;;;;;;18.00;53.80;;;;;;5073521;28;19973;-54
2023/01/06 06:07:13;;;;;;;;;;;18.00;53.90;;;;;;5072701;28;19912;-52
2023/01/06 06:09:39;;;;;;;;;;;18.00;54.10;;;;;;5072550;28;19919;-52
2023/01/06 06:12:05;;;;;;;;;;;18.00;54.00;;;;;;5087803;28;20062;-52
2023/01/06 06:14:31;;;;;;;;;;;18.00;54.00;;;;;;5074495;28;19978;-52
2023/01/06 06:16:56;;;;;;;;;;;18.00;54.10;;;;;;5084736;28;20422;-53
2023/01/06 06:19:22;;;;;;;;;;;17.90;54.10;;;;;;5070782;28;20008;-53
2023/01/06 06:21:47;;;;;;;;;;;17.90;54.30;;;;;;5073832;28;20407;-51
2023/01/06 06:24:13;;;;;;;;;;;17.90;54.40;;;;;;5074004;28;19912;-53
2023/01/06 06:26:38;;;;;;;;;;;17.90;54.30;;;;;;5066679;28;19909;-53
2023/01/06 06:29:04;;;;;;;;;;;17.90;54.50;;;;;;5093705;28;19916;-53
2023/01/06 06:31:30;;;;;;;;;;;17.90;54.50;;;;;;5076903;28;19916;-53
2023/01/06 06:33:57;;;;;;;;;;;17.90;54.30;;;;;;5072418;28;19917;-53
2023/01/06 06:36:22;;;;;;;;;;;17.90;54.40;;;;;;5065353;28;19913;-53
2023/01/06 06:38:48;;;;;;;;;;;17.80;54.40;;;;;;5053588;28;19936;-53
2023/01/06 06:41:13;;;;;;;;;;;17.80;54.60;;;;;;5055141;28;19917;-53
2023/01/06 06:43:39;;;;;;;;;;;17.80;54.60;;;;;;5060179;28;19919;-53
2023/01/06 06:46:05;;;;;;;;;;;17.70;54.70;;;;;;5053412;28;20475;-53
2023/01/06 06:48:30;;;;;;;;;;;17.80;54.60;;;;;;5053678;28;20318;-53
2023/01/06 06:50:59;;;;;;;;;;;17.80;54.70;;;;;;5070555;28;19923;-53
2023/01/06 06:53:24;;;;;;;;;;;17.80;54.70;;;;;;5072468;28;19916;-53
2023/01/06 06:55:50;;;;;;;;;;;17.80;54.50;;;;;;5073154;28;20338;-53
2023/01/06 06:58:15;;;;;;;;;;;17.90;54.50;;;;;;5072910;28;20376;-53
2023/01/06 07:00:41;;;;;;;;;;;17.80;54.50;;;;;;5071868;28;19920;-53
2023/01/06 07:03:06;;;;;;;;;;;17.80;54.60;;;;;;5067574;28;19913;-53
2023/01/06 07:05:32;;;;;;;;;;;17.90;54.60;;;;;;5073175;28;19929;-53
2023/01/06 07:07:57;;;;;;;;;;;17.90;54.50;;;;;;5072594;28;19978;-53
2023/01/06 07:10:22;;;;;;;;;;;17.90;54.60;;;;;;5072676;28;20410;-53
2023/01/06 07:12:48;;;;;;;;;;;17.90;54.60;;;;;;5071565;28;20372;-53
2023/01/06 07:15:13;;;;;;;;;;;17.80;54.60;;;;;;5072217;28;20019;-53
2023/01/06 07:17:40;;;;;;;;;;;17.80;54.70;;;;;;5073032;28;20365;-53
2023/01/06 07:20:06;;;;;;;;;;;17.80;54.60;;;;;;5071236;28;19974;-53
2023/01/06 07:22:31;;;;;;;;;;;17.80;54.60;;;;;;5071132;28;19920;-53
2023/01/06 07:24:57;;;;;;;;;;;17.80;54.70;;;;;;5068288;28;20299;-53
2023/01/06 07:27:22;;;;;;;;;;;17.80;54.70;;;;;;5071928;28;20395;-53
2023/01/06 07:29:48;;;;;;;;;;;17.80;54.70;;;;;;5071557;28;19928;-52
2023/01/06 07:32:13;;;;;;;;;;;17.80;54.70;;;;;;5072734;28;20336;-53
2023/01/06 07:34:38;;;;;;;;;;;17.80;54.80;;;;;;5071952;28;20379;-53
2023/01/06 07:37:04;;;;;;;;;;;17.80;54.70;;;;;;5062698;28;19913;-53
2023/01/06 07:39:29;;;;;;;;;;;17.70;55.40;;;;;;5067675;28;19912;-53
2023/01/06 07:41:55;;;;;;;;;;;17.70;54.60;;;;;;5072460;28;19919;-53
2023/01/06 07:44:20;;;;;;;;;;;17.80;54.70;;;;;;5071714;28;19913;-53
2023/01/06 07:46:46;;;;;;;;;;;17.70;54.80;;;;;;5072454;28;19908;-53
2023/01/06 07:49:11;;;;;;;;;;;17.70;54.90;;;;;;5062875;28;19999;-53
2023/01/06 07:51:36;;;;;;;;;;;17.70;55.00;;;;;;5070829;28;20395;-53
2023/01/06 07:54:02;;;;;;;;;;;17.70;55.00;;;;;;5072399;28;19912;-53
2023/01/06 07:56:27;;;;;;;;;;;17.60;54.90;;;;;;5070623;28;19924;-53
2023/01/06 07:58:56;;;;;;;;;;;17.70;55.00;;;;;;5059346;28;19913;-53
2023/01/06 08:01:22;;;;;;;;;;;17.70;54.90;;;;;;5072131;28;19915;-53
2023/01/06 08:03:47;;;;;;;;;;;17.70;54.90;;;;;;5072178;28;19917;-53
2023/01/06 08:06:12;;;;;;;;;;;17.70;54.90;;;;;;5071314;28;19954;-53
2023/01/06 08:08:38;;;;;;;;;;;17.70;54.80;;;;;;5070159;28;19982;-54
2023/01/06 08:11:04;;;;;;;;;;;17.70;54.80;;;;;;5069032;28;19920;-53
2023/01/06 08:13:29;;;;;;;;;;;17.70;54.80;;;;;;5070766;28;19954;-53
2023/01/06 08:15:55;;;;;;;;;;;17.70;54.70;;;;;;5070361;28;20338;-53
2023/01/06 08:18:20;;;;;;;;;;;17.80;54.80;;;;;;5070644;28;20352;-53
2023/01/06 08:20:46;;;;;;;;;;;17.80;54.60;;;;;;5059934;28;20295;-53
2023/01/06 08:23:11;;;;;;;;;;;17.80;54.70;;;;;;5070552;28;19921;-53
2023/01/06 08:25:36;;;;;;;;;;;17.80;54.70;;;;;;5070977;28;19916;-53
2023/01/06 08:28:02;;;;;;;;;;;17.70;54.70;;;;;;5068559;28;19916;-53
2023/01/06 08:30:28;;;;;;;;;;;17.70;54.70;;;;;;5069135;28;19977;-53
2023/01/06 08:32:56;;;;;;;;;;;17.70;54.80;;;;;;5070896;28;20376;-53
2023/01/06 08:35:22;;;;;;;;;;;17.70;54.70;;;;;;5069073;28;19991;-53
2023/01/06 08:37:47;;;;;;;;;;;17.80;54.50;;;;;;5068340;28;19966;-53
2023/01/06 08:40:12;;;;;;;;;;;17.80;54.50;;;;;;5064968;28;20323;-51
2023/01/06 08:42:38;;;;;;;;;;;17.80;54.70;;;;;;5063616;28;19920;-52
2023/01/06 08:45:03;;;;;;;;;;;17.70;54.80;;;;;;5066569;28;20007;-52
2023/01/06 08:47:29;;;;;;;;;;;17.80;54.70;;;;;;5065308;28;19917;-52
2023/01/06 08:49:54;;;;;;;;;;;17.80;54.70;;;;;;5064577;28;19952;-53
2023/01/06 08:52:20;;;;;;;;;;;17.80;54.70;;;;;;5063638;28;19967;-51
2023/01/06 08:54:45;;;;;;;;;;;17.80;54.70;;;;;;5062656;28;19920;-52
2023/01/06 08:57:10;;;;;;;;;;;17.80;54.70;;;;;;5069933;28;19930;-52
2023/01/06 08:59:36;;;;;;;;;;;17.80;54.70;;;;;;5071743;28;20014;-52
2023/01/06 09:02:01;;;;;;;;;;;17.70;54.70;;;;;;5071960;28;19959;-52
2023/01/06 09:04:27;;;;;;;;;;;17.70;54.70;;;;;;5073937;28;19916;-52
2023/01/06 09:06:52;;;;;;;;;;;17.70;54.80;;;;;;5065695;28;19922;-52
2023/01/06 09:09:18;;;;;;;;;;;17.70;54.80;;;;;;5075109;28;19915;-52
2023/01/06 09:11:44;;;;;;;;;;;17.70;54.70;;;;;;5073251;28;20330;-52
2023/01/06 09:14:10;;;;;;;;;;;17.70;54.80;;;;;;5070782;28;20331;-52
2023/01/06 09:16:35;;;;;;;;;;;17.70;54.80;;;;;;5057242;28;19909;-52
2023/01/06 09:19:00;;;;;;;;;;;17.70;54.80;;;;;;5064012;28;19917;-52
2023/01/06 09:21:26;;;;;;;;;;;17.70;54.90;;;;;;5066663;28;19927;-51
2023/01/06 09:23:51;;;;;;;;;;;17.70;54.90;;;;;;5067100;28;19912;-51
2023/01/06 09:26:17;;;;;;;;;;;17.70;55.00;;;;;;5060789;28;19923;-52
2023/01/06 09:28:42;;;;;;;;;;;17.70;55.10;;;;;;5071391;28;19927;-52
2023/01/06 09:31:08;;;;;;;;;;;17.70;55.10;;;;;;5070014;28;19919;-53
2023/01/06 09:33:33;;;;;;;;;;;17.70;55.20;;;;;;5067934;28;19919;-53
2023/01/06 09:35:59;;;;;;;;;;;17.70;55.10;;;;;;5068800;28;19916;-53
2023/01/06 09:38:25;;;;;;;;;;;17.70;55.20;;;;;;5073759;28;19919;-53
2023/01/06 09:40:50;;;;;;;;;;;17.70;55.10;;;;;;5072621;28;19912;-53
2023/01/06 09:43:21;;;;;;;;;;;17.70;55.10;;;;;;5075000;28;19931;-53
2023/01/06 09:45:52;;;;;;;;;;;17.70;55.10;;;;;;5075925;28;20050;-52
2023/01/06 09:48:19;;;;;;;;;;;17.70;55.10;;;;;;5069816;28;20303;-53
2023/01/06 09:50:45;;;;;;;;;;;17.70;55.10;;;;;;5066928;28;20001;-53
2023/01/06 09:53:12;;;;;;;;;;;17.70;55.10;;;;;;5075253;28;19969;-53
2023/01/06 09:55:40;;;;;;;;;;;18.10;54.70;;;;;;5063768;28;20015;-53
2023/01/06 09:58:10;;;;;;;;;;;18.90;53.10;;;;;;5075486;28;19920;-53
2023/01/06 10:00:37;;;;;;;;;;;19.90;51.00;;;;;;5067040;28;19917;-53
2023/01/06 10:03:03;;;;;;;;;;;20.80;49.10;;;;;;5065322;28;20065;-54
2023/01/06 10:05:37;;;;;;;;;;;21.40;47.70;;;;;;5061561;28;20338;-53
2023/01/06 10:08:21;;;;;;;;;;;22.00;46.60;;;;;;5064787;28;19916;-53
2023/01/06 10:10:49;;;;;;;;;;;22.50;45.80;;;;;;5071469;28;19916;-52
2023/01/06 10:13:24;;;;;;;;;;;22.70;45.10;;;;;;5068372;28;19912;-52
2023/01/06 10:16:10;;;;;;;;;;;22.90;44.90;;;;;;5066565;28;19913;-53
2023/01/06 10:18:54;;;;;;;;;;;23.10;44.70;;;;;;5064652;28;20016;-52
2023/01/06 10:21:31;;;;;;;;;;;23.20;44.50;;;;;;5079364;28;19923;-52
2023/01/06 10:24:00;;;;;;;;;;;23.40;44.20;;;;;;5072718;28;19923;-52
2023/01/06 10:26:29;;;;;;;;;;;23.50;44.00;;;;;;5072384;28;19909;-52
2023/01/06 10:28:56;;;;;;;;;;;23.50;43.80;;;;;;5072798;28;20355;-53
2023/01/06 10:31:23;;;;;;;;;;;23.70;43.60;;;;;;5072095;28;20398;-52
2023/01/06 10:33:49;;;;;;;;;;;23.70;43.50;;;;;;5073376;28;20015;-52
2023/01/06 10:36:18;;;;;;;;;;;23.70;43.50;;;;;;5060237;28;21307;-52
2023/01/06 10:38:48;;;;;;;;;;;23.80;43.50;;;;;;5062958;28;20283;-52
2023/01/06 10:41:19;;;;;;;;;;;23.90;43.30;;;;;;5070154;28;19934;-52
2023/01/06 10:43:44;;;;;;;;;;;23.90;43.40;;;;;;5070972;28;20014;-53
2023/01/06 10:46:10;;;;;;;;;;;23.90;43.20;;;;;;5071940;28;20332;-53
2023/01/06 10:48:35;;;;;;;;;;;24.00;43.30;;;;;;5072362;28;20396;-53
2023/01/06 10:51:21;;;;;;;;;;;24.00;43.20;;;;;;5069448;28;19954;-52
2023/01/06 10:53:46;;;;;;;;;;;24.00;43.20;;;;;;5070220;28;19916;-53
2023/01/06 10:56:12;;;;;;;;;;;24.10;43.30;;;;;;5071570;28;19958;-53
2023/01/06 10:58:41;;;;;;;;;;;24.10;43.10;;;;;;5061850;28;19924;-52
2023/01/06 11:01:08;;;;;;;;;;;24.20;43.10;;;;;;5053311;28;19913;-52
2023/01/06 11:03:33;;;;;;;;;;;24.20;43.00;;;;;;5070515;28;19918;-53
2023/01/06 11:06:00;;;;;;;;;;;24.30;43.00;;;;;;5072829;28;20436;-53
2023/01/06 11:08:26;;;;;;;;;;;24.40;42.90;;;;;;5070506;28;19948;-53
2023/01/06 11:10:52;;;;;;;;;;;24.40;42.80;;;;;;5105070;28;19966;-52
2023/01/06 11:13:21;;;;;;;;;;;24.50;42.80;;;;;;5072079;28;19928;-51
2023/01/06 11:15:47;;;;;;;;;;;24.50;42.80;;;;;;5071038;28;19916;-53
2023/01/06 11:18:17;;;;;;;;;;;24.40;42.80;;;;;;5070070;28;19923;-53
2023/01/06 11:20:42;;;;;;;;;;;24.50;42.80;;;;;;5068059;28;20025;-52
2023/01/06 11:23:11;;;;;;;;;;;24.50;42.80;;;;;;5069443;28;19969;-51
2023/01/06 11:25:36;;;;;;;;;;;24.40;43.00;;;;;;5061432;28;20015;-51
2023/01/06 11:28:08;;;;;;;;;;;24.30;43.30;;;;;;5071122;28;20011;-53
2023/01/06 11:30:37;;;;;;;;;;;24.20;43.30;;;;;;5070172;28;19921;-53
2023/01/06 11:33:02;;;;;;;;;;;24.30;43.40;;;;;;5070937;28;19986;-54
2023/01/06 11:35:29;;;;;;;;;;;24.30;43.10;;;;;;5071401;28;19918;-52
2023/01/06 11:37:58;;;;;;;;;;;24.40;43.00;;;;;;5070155;28;19912;-52
2023/01/06 11:40:25;;;;;;;;;;;24.50;43.00;;;;;;5065446;28;19917;-51
2023/01/06 11:42:52;;;;;;;;;;;24.60;42.80;;;;;;5075219;28;19956;-52
2023/01/06 11:45:40;;;;;;;;;;;24.60;42.80;;;;;;5073203;28;20032;-53
2023/01/06 11:48:12;;;;;;;;;;;24.70;42.70;;;;;;5068295;28;20375;-52
2023/01/06 11:50:37;;;;;;;;;;;24.80;42.60;;;;;;5070579;28;20019;-52
2023/01/06 11:53:05;;;;;;;;;;;24.70;42.60;;;;;;5070234;28;20002;-52
2023/01/06 11:55:30;;;;;;;;;;;24.80;42.70;;;;;;5102225;27;20022;-52
2023/01/06 11:58:00;;;;;;;;;;;24.90;42.50;;;;;;5070297;28;20034;-52
2023/01/06 12:00:32;;;;;;;;;;;25.00;42.40;;;;;;5074984;28;19917;-52
2023/01/06 12:03:02;;;;;;;;;;;25.00;42.50;;;;;;5063404;28;19917;-52
2023/01/06 12:05:36;;;;;;;;;;;24.90;42.70;;;;;;5077909;28;19913;-52
2023/01/06 12:08:08;;;;;;;;;;;24.80;42.80;;;;;;5068252;28;19921;-53
2023/01/06 12:10:34;;;;;;;;;;;24.80;42.80;;;;;;5061989;28;19925;-53
2023/01/06 12:12:59;;;;;;;;;;;24.80;42.90;;;;;;5061066;28;20395;-53
2023/01/06 12:15:26;;;;;;;;;;;24.70;43.00;;;;;;5065443;28;19920;-52
2023/01/06 12:17:52;;;;;;;;;;;24.70;43.10;;;;;;5060221;28;19909;-53
2023/01/06 12:20:34;;;;;;;;;;;24.80;43.00;;;;;;5060617;28;19943;-53
2023/01/06 12:23:00;;;;;;;;;;;24.90;42.80;;;;;;5064099;28;19947;-52
2023/01/06 12:25:33;;;;;;;;;;;25.00;42.80;;;;;;5073960;28;19957;-53
2023/01/06 12:28:00;;;;;;;;;;;24.90;42.80;;;;;;5084689;28;20455;-52
2023/01/06 12:30:37;;;;;;;;;;;24.80;42.90;;;;;;5054724;28;19917;-52
2023/01/06 12:33:13;;;;;;;;;;;24.80;43.10;;;;;;5074915;28;19959;-52
2023/01/06 12:35:38;;;;;;;;;;;24.80;43.10;;;;;;5075339;28;19924;-53
2023/01/06 12:38:07;;;;;;;;;;;24.90;43.10;;;;;;5073622;28;19912;-52
2023/01/06 12:40:52;;;;;;;;;;;25.00;43.00;;;;;;5073208;28;19916;-53
2023/01/06 12:43:18;;;;;;;;;;;25.10;43.00;;;;;;5075206;28;20315;-53
2023/01/06 12:45:54;;;;;;;;;;;25.00;43.00;;;;;;5082412;28;19916;-53
2023/01/06 12:48:35;;;;;;;;;;;25.10;42.90;;;;;;5074217;28;19912;-52
2023/01/06 12:51:12;;;;;;;;;;;25.10;43.00;;;;;;5074463;28;19917;-51
2023/01/06 12:53:40;;;;;;;;;;;25.10;43.00;;;;;;5069258;28;19942;-52
2023/01/06 12:56:18;;;;;;;;;;;25.00;43.00;;;;;;5075208;28;19962;-53
2023/01/06 12:59:02;;;;;;;;;;;25.10;43.00;;;;;;5073805;28;19978;-53
2023/01/06 13:01:50;;;;;;;;;;;25.10;42.90;;;;;;5069037;28;20007;-53
2023/01/06 13:04:16;;;;;;;;;;;24.90;43.00;;;;;;5069502;28;19919;-52
2023/01/06 13:06:50;;;;;;;;;;;24.90;43.30;;;;;;5079249;28;19920;-52
2023/01/06 13:09:27;;;;;;;;;;;24.80;43.30;;;;;;5082732;28;19918;-52
2023/01/06 13:12:05;;;;;;;;;;;24.70;44.10;;;;;;5085371;28;20459;-53
2023/01/06 13:14:41;;;;;;;;;;;24.70;43.70;;;;;;5073601;28;19912;-53
2023/01/06 13:17:25;;;;;;;;;;;24.80;43.50;;;;;;5069130;28;19951;-51
2023/01/06 13:19:52;;;;;;;;;;;24.90;43.40;;;;;;5063850;28;19913;-51
2023/01/06 13:22:36;;;;;;;;;;;24.80;43.60;;;;;;5069215;28;20380;-51
2023/01/06 13:25:02;;;;;;;;;;;24.70;43.60;;;;;;5070091;28;19954;-52
2023/01/06 13:27:46;;;;;;;;;;;24.80;43.80;;;;;;5068287;28;20299;-52
2023/01/06 13:30:15;;;;;;;;;;;24.80;43.60;;;;;;5067014;28;20405;-52
2023/01/06 13:32:43;;;;;;;;;;;24.90;43.50;;;;;;5066927;28;20391;-52
2023/01/06 13:35:29;;;;;;;;;;;25.00;43.20;;;;;;5068242;28;21484;-52
2023/01/06 13:38:13;;;;;;;;;;;25.10;43.20;;;;;;5071072;28;19944;-53
2023/01/06 13:40:39;;;;;;;;;;;25.00;43.20;;;;;;5066367;28;19918;-53
2023/01/06 13:43:05;;;;;;;;;;;24.90;43.40;;;;;;5066761;28;20281;-53
2023/01/06 13:45:31;;;;;;;;;;;24.90;43.50;;;;;;5072744;28;19912;-52
2023/01/06 13:47:57;;;;;;;;;;;24.90;43.50;;;;;;5069593;28;19912;-51
2023/01/06 13:50:22;;;;;;;;;;;24.80;43.70;;;;;;5068119;28;19950;-52
2023/01/06 13:52:48;;;;;;;;;;;24.80;43.80;;;;;;5073606;28;21543;-52
2023/01/06 13:55:17;;;;;;;;;;;24.90;43.80;;;;;;5067962;28;21722;-52
2023/01/06 13:57:42;;;;;;;;;;;25.00;43.60;;;;;;5066042;28;20379;-53
2023/01/06 14:00:13;;;;;;;;;;;25.10;43.30;;;;;;5071687;28;20029;-53
2023/01/06 14:02:38;;;;;;;;;;;25.20;43.20;;;;;;5077018;28;19916;-53
2023/01/06 14:05:04;;;;;;;;;;;25.10;43.30;;;;;;5070307;28;19966;-53
2023/01/06 14:07:39;;;;;;;;;;;25.00;43.50;;;;;;5077309;28;19912;-52
2023/01/06 14:10:27;;;;;;;;;;;24.90;43.70;;;;;;5062370;28;20449;-53
2023/01/06 14:12:53;;;;;;;;;;;24.90;43.70;;;;;;5071113;28;19966;-52
2023/01/06 14:15:20;;;;;;;;;;;25.00;43.70;;;;;;5070496;28;19952;-52
2023/01/06 14:17:45;;;;;;;;;;;25.00;43.70;;;;;;5072506;28;19948;-53
2023/01/06 14:20:20;;;;;;;;;;;25.00;43.80;;;;;;5071140;28;19916;-53